Time;durP1;ratioP1;P1;durP2;ratioP2;P2;SDS_P1;SDS_P2;PMS_P1;PMS_P2;Temp;Humidity;BMP_temperature;BMP_pressure;BME280_temperature;BME280_humidity;BME280_pressure;Samples;Min_cycle;Max_cycle;Signal;HPM_P1;HPM_P2
2022/06/29 00:00:02;;;;;;;0.87;0.60;;;21.60;99.90;;;;;;1043994;28;20020;-65
2022/06/29 00:00:32;;;;;;;1.40;0.55;;;21.60;99.90;;;;;;1043753;28;20009;-64
2022/06/29 00:01:03;;;;;;;2.40;0.70;;;21.60;99.90;;;;;;1043756;28;20087;-65
2022/06/29 00:01:33;;;;;;;3.23;0.90;;;21.60;99.90;;;;;;1043960;28;20387;-66
2022/06/29 00:02:05;;;;;;;1.67;0.70;;;21.60;99.90;;;;;;1043560;28;20397;-64
2022/06/29 00:02:35;;;;;;;1.85;0.90;;;21.60;99.90;;;;;;1043639;28;20092;-64
2022/06/29 00:03:06;;;;;;;1.20;0.70;;;21.60;99.90;;;;;;1043316;28;20025;-64
2022/06/29 00:03:37;;;;;;;1.43;0.70;;;21.60;99.90;;;;;;1043487;28;20019;-64
2022/06/29 00:04:07;;;;;;;1.33;0.77;;;21.60;99.90;;;;;;1043666;28;20522;-65
2022/06/29 00:04:38;;;;;;;1.23;0.80;;;21.60;99.90;;;;;;1043642;28;20568;-64
2022/06/29 00:05:09;;;;;;;0.87;0.63;;;21.60;99.90;;;;;;1046748;28;20020;-64
2022/06/29 00:05:39;;;;;;;1.65;0.80;;;21.60;99.90;;;;;;1048122;28;20028;-65
2022/06/29 00:06:10;;;;;;;2.30;0.90;;;21.60;99.90;;;;;;1047664;28;20020;-65
2022/06/29 00:06:40;;;;;;;1.30;0.60;;;21.60;99.90;;;;;;1047691;28;20479;-65
2022/06/29 00:07:11;;;;;;;1.40;0.90;;;21.70;99.90;;;;;;1046996;28;20027;-65
2022/06/29 00:07:43;;;;;;;1.13;0.57;;;21.70;99.90;;;;;;1048017;28;20021;-65
2022/06/29 00:08:14;;;;;;;1.23;0.70;;;21.70;99.90;;;;;;1047268;28;20089;-65
2022/06/29 00:08:46;;;;;;;1.55;0.68;;;21.70;99.90;;;;;;1047724;28;20046;-65
2022/06/29 00:09:16;;;;;;;0.82;0.60;;;21.70;99.90;;;;;;1047261;28;20739;-65
2022/06/29 00:09:47;;;;;;;1.40;0.80;;;21.70;99.90;;;;;;1047624;28;20659;-64
2022/06/29 00:10:18;;;;;;;1.63;0.70;;;21.70;99.90;;;;;;1047878;28;20426;-64
2022/06/29 00:10:49;;;;;;;0.75;0.65;;;21.70;99.90;;;;;;1048050;28;20019;-65
2022/06/29 00:11:19;;;;;;;2.20;1.07;;;21.70;99.90;;;;;;1047711;28;20078;-65
2022/06/29 00:11:50;;;;;;;2.37;0.70;;;21.70;99.90;;;;;;1047620;28;20114;-65
2022/06/29 00:12:20;;;;;;;1.63;0.90;;;21.70;99.90;;;;;;1047429;28;20089;-65
2022/06/29 00:12:52;;;;;;;1.47;0.83;;;21.70;99.90;;;;;;1047801;28;20582;-65
2022/06/29 00:13:22;;;;;;;2.28;0.80;;;21.70;99.90;;;;;;1047505;28;20013;-65
2022/06/29 00:13:53;;;;;;;2.00;0.80;;;21.70;99.90;;;;;;1047013;28;20013;-64
2022/06/29 00:14:23;;;;;;;0.97;0.87;;;21.60;99.90;;;;;;1043721;28;20021;-65
2022/06/29 00:14:55;;;;;;;1.40;0.80;;;21.70;99.90;;;;;;1043851;28;20094;-64
2022/06/29 00:15:26;;;;;;;2.10;0.68;;;21.70;99.90;;;;;;1043946;28;20024;-65
2022/06/29 00:15:56;;;;;;;2.27;0.93;;;21.60;99.90;;;;;;1043263;28;20112;-65
2022/06/29 00:16:27;;;;;;;1.67;0.90;;;21.60;99.90;;;;;;1043294;28;20021;-65
2022/06/29 00:16:58;;;;;;;1.30;0.73;;;21.60;99.90;;;;;;1043336;28;20025;-65
2022/06/29 00:17:33;;;;;;;1.20;0.80;;;21.60;99.90;;;;;;1043383;28;20024;-65
2022/06/29 00:18:03;;;;;;;0.88;0.70;;;21.60;99.90;;;;;;1043976;28;20013;-65
2022/06/29 00:18:35;;;;;;;1.57;0.70;;;21.60;99.90;;;;;;1043497;28;20096;-65
2022/06/29 00:19:05;;;;;;;1.50;0.70;;;21.60;99.90;;;;;;1043806;28;20017;-68
2022/06/29 00:19:36;;;;;;;1.13;0.80;;;21.60;99.90;;;;;;1043553;28;20040;-65
2022/06/29 00:20:10;;;;;;;1.30;0.80;;;21.60;99.90;;;;;;1043353;28;20017;-65
2022/06/29 00:20:40;;;;;;;0.77;0.57;;;21.60;99.90;;;;;;1039457;28;20683;-65
2022/06/29 00:21:11;;;;;;;2.60;0.90;;;21.60;99.90;;;;;;1039289;28;20552;-65
2022/06/29 00:21:41;;;;;;;1.50;0.87;;;21.60;99.90;;;;;;1041179;28;20164;-65
2022/06/29 00:22:12;;;;;;;0.83;0.80;;;21.60;99.90;;;;;;1047550;28;20017;-65
2022/06/29 00:22:43;;;;;;;1.37;0.73;;;21.60;99.90;;;;;;1047837;28;20025;-64
2022/06/29 00:23:14;;;;;;;1.83;0.70;;;21.60;99.90;;;;;;1048040;28;20490;-64
2022/06/29 00:23:45;;;;;;;1.57;0.93;;;21.60;99.90;;;;;;1047803;28;20432;-64
2022/06/29 00:24:15;;;;;;;0.77;0.77;;;21.60;99.90;;;;;;1047723;28;20023;-65
2022/06/29 00:24:46;;;;;;;1.00;0.70;;;21.60;99.90;;;;;;1048305;28;20080;-65
2022/06/29 00:25:17;;;;;;;1.07;0.67;;;21.60;99.90;;;;;;1047137;28;20024;-64
2022/06/29 00:25:47;;;;;;;1.10;0.70;;;21.60;99.90;;;;;;1047718;28;20551;-66
2022/06/29 00:26:18;;;;;;;1.20;0.70;;;21.50;99.90;;;;;;1047262;28;20028;-64
2022/06/29 00:26:48;;;;;;;1.07;0.80;;;21.60;99.90;;;;;;1047664;28;20479;-63
2022/06/29 00:27:19;;;;;;;1.13;0.60;;;21.50;99.90;;;;;;1047543;28;20579;-64
2022/06/29 00:27:49;;;;;;;1.43;0.73;;;21.60;99.90;;;;;;1047477;28;20102;-65
2022/06/29 00:28:20;;;;;;;1.40;0.70;;;21.50;99.90;;;;;;1047579;28;20036;-64
2022/06/29 00:28:50;;;;;;;1.20;0.80;;;21.50;99.90;;;;;;1047508;28;20523;-64
2022/06/29 00:29:21;;;;;;;2.60;0.80;;;21.50;99.90;;;;;;1046939;28;20883;-64
2022/06/29 00:29:53;;;;;;;1.63;0.70;;;21.50;99.90;;;;;;1048616;28;20016;-64
2022/06/29 00:30:23;;;;;;;2.05;0.93;;;21.50;99.90;;;;;;1047128;28;20064;-64
2022/06/29 00:30:54;;;;;;;2.93;0.80;;;21.60;99.90;;;;;;1047840;28;20017;-65
2022/06/29 00:31:24;;;;;;;1.47;0.60;;;21.50;99.90;;;;;;1047246;28;20672;-64
2022/06/29 00:31:55;;;;;;;2.00;1.13;;;21.50;99.90;;;;;;1043411;28;20480;-64
2022/06/29 00:32:26;;;;;;;1.47;0.70;;;21.50;99.90;;;;;;1047610;28;20024;-64
2022/06/29 00:32:56;;;;;;;1.27;0.80;;;21.50;99.90;;;;;;1047623;28;20248;-67
2022/06/29 00:33:27;;;;;;;0.77;0.73;;;21.50;99.90;;;;;;1047426;28;20456;-64
2022/06/29 00:33:57;;;;;;;1.43;0.70;;;21.50;99.90;;;;;;1047884;28;20414;-67
2022/06/29 00:34:28;;;;;;;2.00;0.90;;;21.50;99.90;;;;;;1047597;28;20016;-65
2022/06/29 00:34:59;;;;;;;1.70;0.80;;;21.50;99.90;;;;;;1048119;28;20432;-64
2022/06/29 00:35:29;;;;;;;1.50;0.77;;;21.50;99.90;;;;;;1047531;28;20032;-65
2022/06/29 00:36:00;;;;;;;1.00;0.67;;;21.50;99.90;;;;;;1048378;28;20040;-64
2022/06/29 00:36:30;;;;;;;2.33;0.90;;;21.50;99.90;;;;;;1047424;28;20383;-65
2022/06/29 00:37:03;;;;;;;1.07;0.60;;;21.50;99.90;;;;;;1048041;28;20400;-65
2022/06/29 00:37:34;;;;;;;1.85;0.80;;;21.50;99.90;;;;;;1047320;28;20048;-65
2022/06/29 00:38:05;;;;;;;1.08;0.90;;;21.50;99.90;;;;;;1048232;28;20542;-64
2022/06/29 00:38:35;;;;;;;1.97;0.83;;;21.50;99.90;;;;;;1047847;28;20498;-64
2022/06/29 00:39:06;;;;;;;1.40;0.80;;;21.50;99.90;;;;;;1047898;28;20035;-65
2022/06/29 00:39:37;;;;;;;0.80;0.70;;;21.50;99.90;;;;;;1047429;28;20013;-65
2022/06/29 00:40:08;;;;;;;1.57;0.73;;;21.50;99.90;;;;;;1047966;28;20040;-64
2022/06/29 00:40:39;;;;;;;0.63;0.50;;;21.50;99.90;;;;;;1047568;28;20020;-67
2022/06/29 00:41:09;;;;;;;1.93;0.90;;;21.50;99.90;;;;;;1048094;28;20255;-65
2022/06/29 00:41:45;;;;;;;1.67;1.20;;;21.50;99.90;;;;;;1047758;28;20013;-65
2022/06/29 00:42:15;;;;;;;1.08;0.80;;;21.50;99.90;;;;;;1047704;28;20016;-65
2022/06/29 00:42:46;;;;;;;2.17;0.93;;;21.50;99.90;;;;;;1047704;28;20122;-65
2022/06/29 00:43:16;;;;;;;2.00;0.60;;;21.50;99.90;;;;;;1047513;28;20020;-65
2022/06/29 00:43:47;;;;;;;1.60;0.77;;;21.50;99.90;;;;;;1048078;28;20020;-65
2022/06/29 00:44:19;;;;;;;1.30;0.90;;;21.50;99.90;;;;;;1047982;28;20024;-65
2022/06/29 00:44:49;;;;;;;1.13;0.60;;;21.50;99.90;;;;;;1047525;28;20519;-65
2022/06/29 00:45:20;;;;;;;1.73;1.03;;;21.50;99.90;;;;;;1047636;28;20714;-65
2022/06/29 00:45:51;;;;;;;4.47;0.73;;;21.50;99.90;;;;;;1047537;28;20024;-65
2022/06/29 00:46:21;;;;;;;0.87;0.80;;;21.50;99.90;;;;;;1047628;28;20019;-65
2022/06/29 00:46:57;;;;;;;1.77;0.80;;;21.50;99.90;;;;;;1047802;28;20020;-64
2022/06/29 00:47:28;;;;;;;1.85;0.80;;;21.50;99.90;;;;;;1047763;28;20051;-64
2022/06/29 00:47:59;;;;;;;1.27;0.70;;;21.50;99.90;;;;;;1047710;28;20027;-65
2022/06/29 00:48:29;;;;;;;1.10;1.00;;;21.50;99.90;;;;;;1047599;28;20028;-65
2022/06/29 00:49:00;;;;;;;2.53;0.90;;;21.50;99.90;;;;;;1048211;28;20468;-64
2022/06/29 00:49:31;;;;;;;0.90;0.70;;;21.50;99.90;;;;;;1047739;28;20017;-65
2022/06/29 00:50:02;;;;;;;2.35;0.82;;;21.50;99.90;;;;;;1047823;28;20035;-65
2022/06/29 00:50:33;;;;;;;0.93;0.67;;;21.50;99.90;;;;;;1047577;28;20020;-64
2022/06/29 00:51:04;;;;;;;1.07;0.80;;;21.50;99.90;;;;;;1047464;28;20150;-64
2022/06/29 00:51:35;;;;;;;3.28;0.85;;;21.50;99.90;;;;;;1043665;28;20017;-65
2022/06/29 00:52:08;;;;;;;1.00;0.52;;;21.50;99.90;;;;;;1043541;28;20420;-65
2022/06/29 00:52:42;;;;;;;1.50;0.80;;;21.50;99.90;;;;;;1042956;28;20032;-65
2022/06/29 00:53:16;;;;;;;1.52;0.80;;;21.40;99.90;;;;;;1043213;28;20021;-65
2022/06/29 00:53:50;;;;;;;1.70;0.77;;;21.40;99.90;;;;;;1043371;28;20104;-65
2022/06/29 00:54:23;;;;;;;1.40;0.60;;;21.40;99.90;;;;;;1044101;28;20128;-68
2022/06/29 00:55:06;;;;;;;0.95;0.57;;;21.50;99.90;;;;;;1043248;28;20060;-65
2022/06/29 00:55:41;;;;;;;1.80;0.80;;;21.40;99.90;;;;;;1042860;28;20218;-65
2022/06/29 00:56:13;;;;;;;1.50;0.90;;;21.40;99.90;;;;;;1043451;28;20024;-65
2022/06/29 00:56:43;;;;;;;1.88;0.65;;;21.40;99.90;;;;;;1043532;28;20139;-65
2022/06/29 00:57:19;;;;;;;2.80;1.00;;;21.40;99.90;;;;;;1043884;28;20017;-65
2022/06/29 00:57:52;;;;;;;1.70;0.80;;;21.40;99.90;;;;;;1043398;28;20095;-65
2022/06/29 00:58:27;;;;;;;1.73;0.93;;;21.40;99.90;;;;;;1043772;28;20380;-65
2022/06/29 00:59:02;;;;;;;1.92;0.80;;;21.40;99.90;;;;;;1043042;28;20028;-65
2022/06/29 00:59:39;;;;;;;2.35;0.82;;;21.40;99.90;;;;;;1043755;28;20013;-65
2022/06/29 01:00:12;;;;;;;1.33;0.77;;;21.40;99.90;;;;;;1043332;28;20013;-65
2022/06/29 01:00:44;;;;;;;1.90;0.70;;;21.40;99.90;;;;;;1040655;28;20029;-66
2022/06/29 01:01:16;;;;;;;0.93;0.60;;;21.40;99.90;;;;;;1043368;28;20044;-65
2022/06/29 01:01:47;;;;;;;1.90;1.02;;;21.30;99.90;;;;;;1043038;28;20048;-66
2022/06/29 01:02:19;;;;;;;2.43;0.70;;;21.30;99.90;;;;;;1043561;28;20096;-66
2022/06/29 01:02:50;;;;;;;3.88;1.20;;;21.40;99.90;;;;;;1043263;28;20017;-65
2022/06/29 01:03:21;;;;;;;2.47;0.70;;;21.30;99.90;;;;;;1043691;28;20024;-65
2022/06/29 01:03:51;;;;;;;1.93;0.70;;;21.30;99.90;;;;;;1043257;28;20022;-65
2022/06/29 01:04:24;;;;;;;1.47;0.80;;;21.30;99.90;;;;;;1043912;28;20021;-65
2022/06/29 01:04:55;;;;;;;2.08;0.80;;;21.40;99.90;;;;;;1044371;28;20013;-65
2022/06/29 01:05:26;;;;;;;2.15;0.95;;;21.30;99.90;;;;;;1047592;28;20027;-65
2022/06/29 01:05:57;;;;;;;1.25;0.80;;;21.30;99.90;;;;;;1046989;28;20456;-66
2022/06/29 01:06:27;;;;;;;0.83;0.60;;;21.30;99.90;;;;;;1047316;28;20013;-65
2022/06/29 01:06:58;;;;;;;1.67;0.80;;;21.30;99.90;;;;;;1047099;28;20013;-65
2022/06/29 01:07:32;;;;;;;1.50;0.80;;;21.30;99.90;;;;;;1047517;28;20017;-65
2022/06/29 01:08:02;;;;;;;1.17;0.70;;;21.30;99.90;;;;;;1047265;28;20387;-65
2022/06/29 01:08:33;;;;;;;1.90;1.17;;;21.30;99.90;;;;;;1047420;28;20400;-65
2022/06/29 01:09:04;;;;;;;1.03;0.73;;;21.30;99.90;;;;;;1047620;28;20023;-65
2022/06/29 01:09:35;;;;;;;1.08;0.75;;;21.30;99.90;;;;;;1047447;28;20578;-66
2022/06/29 01:10:07;;;;;;;2.03;1.10;;;21.30;99.90;;;;;;1047457;28;20069;-65
2022/06/29 01:10:37;;;;;;;1.42;1.00;;;21.30;99.90;;;;;;1047100;28;20508;-65
2022/06/29 01:11:08;;;;;;;1.13;0.73;;;21.30;99.90;;;;;;1047344;28;20021;-66
2022/06/29 01:11:38;;;;;;;0.60;0.60;;;21.30;99.90;;;;;;1047175;28;20066;-65
2022/06/29 01:12:09;;;;;;;1.97;1.00;;;21.30;99.90;;;;;;1047735;28;20013;-65
2022/06/29 01:12:40;;;;;;;1.23;1.00;;;21.30;99.90;;;;;;1047825;28;20012;-65
2022/06/29 01:13:11;;;;;;;1.27;0.77;;;21.30;99.90;;;;;;1047744;28;20013;-65
2022/06/29 01:13:44;;;;;;;2.05;0.95;;;21.30;99.90;;;;;;1047557;28;20028;-65
2022/06/29 01:14:15;;;;;;;1.60;0.85;;;21.30;99.90;;;;;;1043899;28;20025;-65
2022/06/29 01:14:48;;;;;;;1.95;0.90;;;21.30;99.90;;;;;;1043953;28;20198;-65
2022/06/29 01:15:20;;;;;;;1.00;0.70;;;21.30;99.90;;;;;;1046690;28;20052;-65
2022/06/29 01:15:50;;;;;;;2.53;0.98;;;21.30;99.90;;;;;;1047293;28;20028;-65
2022/06/29 01:16:21;;;;;;;0.97;0.60;;;21.30;99.90;;;;;;1047310;28;20016;-66
2022/06/29 01:16:51;;;;;;;2.27;0.97;;;21.30;99.90;;;;;;1047164;28;20058;-65
2022/06/29 01:17:23;;;;;;;2.40;0.67;;;21.30;99.90;;;;;;1048171;28;20025;-65
2022/06/29 01:17:53;;;;;;;1.50;0.80;;;21.30;99.90;;;;;;1047518;28;20024;-65
2022/06/29 01:18:24;;;;;;;1.00;0.70;;;21.40;99.90;;;;;;1047723;28;20078;-65
2022/06/29 01:18:54;;;;;;;0.80;0.70;;;21.30;99.90;;;;;;1047482;28;20025;-65
2022/06/29 01:19:25;;;;;;;2.37;1.30;;;21.40;99.90;;;;;;1047550;28;20016;-65
2022/06/29 01:19:55;;;;;;;1.87;0.77;;;21.30;99.90;;;;;;1047986;28;20071;-65
2022/06/29 01:20:26;;;;;;;1.40;0.90;;;21.30;99.90;;;;;;1047870;28;20020;-66
2022/06/29 01:21:01;;;;;;;1.63;1.10;;;21.30;99.90;;;;;;1047472;28;20052;-65
2022/06/29 01:21:35;;;;;;;0.80;0.80;;;21.40;99.90;;;;;;1047572;28;20017;-65
2022/06/29 01:22:18;;;;;;;2.10;1.10;;;21.30;99.90;;;;;;1047667;28;20026;-65
2022/06/29 01:22:48;;;;;;;1.13;0.70;;;21.30;99.90;;;;;;1047989;28;20051;-65
2022/06/29 01:23:19;;;;;;;1.13;0.90;;;21.30;99.90;;;;;;1047697;28;20107;-65
2022/06/29 01:23:50;;;;;;;2.60;0.70;;;21.30;99.90;;;;;;1047422;28;20107;-66
2022/06/29 01:24:22;;;;;;;1.10;0.70;;;21.30;99.90;;;;;;1047665;28;20047;-65
2022/06/29 01:24:53;;;;;;;2.13;0.73;;;21.30;99.90;;;;;;1047434;28;20505;-65
2022/06/29 01:25:24;;;;;;;1.38;0.80;;;21.30;99.90;;;;;;1046108;28;20035;-65
2022/06/29 01:25:54;;;;;;;1.80;0.80;;;21.30;99.90;;;;;;1043429;28;20171;-65
2022/06/29 01:26:25;;;;;;;0.63;0.57;;;21.30;99.90;;;;;;1043493;28;20430;-66
2022/06/29 01:26:55;;;;;;;1.80;0.70;;;21.30;99.90;;;;;;1043553;28;20021;-65
2022/06/29 01:27:26;;;;;;;1.38;0.80;;;21.30;99.90;;;;;;1042851;28;20029;-65
2022/06/29 01:27:58;;;;;;;1.60;0.70;;;21.30;99.90;;;;;;1043334;28;20028;-65
2022/06/29 01:28:29;;;;;;;1.30;0.70;;;21.30;99.90;;;;;;1042993;28;20025;-65
2022/06/29 01:28:59;;;;;;;1.17;0.77;;;21.30;99.90;;;;;;1043652;28;20061;-65
2022/06/29 01:29:30;;;;;;;1.80;0.70;;;21.30;99.90;;;;;;1047220;28;20107;-65
2022/06/29 01:30:01;;;;;;;1.00;0.90;;;21.30;99.90;;;;;;1047262;28;20527;-65
2022/06/29 01:30:31;;;;;;;1.00;0.80;;;21.30;99.90;;;;;;1047428;28;20365;-65
2022/06/29 01:31:02;;;;;;;2.40;0.83;;;21.30;99.90;;;;;;1047237;28;20025;-66
2022/06/29 01:31:32;;;;;;;1.47;0.93;;;21.30;99.90;;;;;;1042730;28;20066;-64
2022/06/29 01:32:03;;;;;;;0.93;0.77;;;21.20;99.90;;;;;;1043425;28;20029;-64
2022/06/29 01:32:38;;;;;;;1.20;0.93;;;21.20;99.90;;;;;;1047041;28;20021;-64
2022/06/29 01:33:08;;;;;;;1.20;0.80;;;21.30;99.90;;;;;;1047732;28;20443;-64
2022/06/29 01:33:39;;;;;;;0.80;0.60;;;21.20;99.90;;;;;;1047335;28;20344;-64
2022/06/29 01:34:09;;;;;;;0.83;0.80;;;21.20;99.90;;;;;;1047695;28;20089;-64
2022/06/29 01:34:40;;;;;;;1.43;0.90;;;21.20;99.90;;;;;;1047449;28;20016;-64
2022/06/29 01:35:13;;;;;;;1.23;0.70;;;21.20;99.90;;;;;;1047667;28;20016;-66
2022/06/29 01:35:43;;;;;;;1.60;0.90;;;21.20;99.90;;;;;;1047693;28;20103;-64
2022/06/29 01:36:16;;;;;;;1.13;0.80;;;21.20;99.90;;;;;;1047556;28;20019;-64
2022/06/29 01:36:46;;;;;;;1.77;0.93;;;21.20;99.90;;;;;;1047500;28;20066;-67
2022/06/29 01:37:17;;;;;;;1.53;0.70;;;21.20;99.90;;;;;;1047791;28;20146;-64
2022/06/29 01:37:49;;;;;;;1.80;1.00;;;21.20;99.90;;;;;;1046921;28;20511;-65
2022/06/29 01:38:20;;;;;;;1.27;0.77;;;21.20;99.90;;;;;;1047603;28;20017;-64
2022/06/29 01:38:50;;;;;;;1.67;0.60;;;21.20;99.90;;;;;;1046997;28;20133;-64
2022/06/29 01:39:21;;;;;;;1.53;0.80;;;21.20;99.90;;;;;;1047347;28;20183;-70
2022/06/29 01:39:51;;;;;;;2.33;1.10;;;21.20;99.90;;;;;;1047047;28;20135;-64
2022/06/29 01:40:22;;;;;;;2.37;0.73;;;21.20;99.90;;;;;;1047330;28;20091;-66
2022/06/29 01:40:52;;;;;;;3.10;1.43;;;21.20;99.90;;;;;;1043016;28;20024;-64
2022/06/29 01:41:23;;;;;;;2.27;1.00;;;21.20;99.90;;;;;;1043310;28;20610;-64
2022/06/29 01:41:54;;;;;;;1.07;0.80;;;21.10;99.90;;;;;;1047119;28;20495;-64
2022/06/29 01:42:24;;;;;;;2.10;1.10;;;21.10;99.90;;;;;;1047259;28;20021;-66
2022/06/29 01:42:58;;;;;;;1.03;0.80;;;21.20;99.90;;;;;;1047346;28;20017;-65
2022/06/29 01:43:31;;;;;;;1.92;1.17;;;21.10;99.90;;;;;;1047984;28;20024;-64
2022/06/29 01:44:01;;;;;;;1.27;0.73;;;21.10;99.90;;;;;;1047279;28;20505;-65
2022/06/29 01:44:33;;;;;;;1.80;0.97;;;21.10;99.90;;;;;;1047576;28;20378;-70
2022/06/29 01:45:04;;;;;;;2.28;0.73;;;21.10;99.90;;;;;;1047472;28;20048;-65
2022/06/29 01:45:35;;;;;;;1.30;0.70;;;21.10;99.90;;;;;;1047401;28;20024;-65
2022/06/29 01:46:06;;;;;;;1.27;0.70;;;21.10;99.90;;;;;;1047349;28;20017;-64
2022/06/29 01:46:38;;;;;;;1.05;0.68;;;21.10;99.90;;;;;;1047406;28;20017;-65
2022/06/29 01:47:08;;;;;;;3.72;0.90;;;21.10;99.90;;;;;;1047423;28;20024;-73
2022/06/29 01:47:39;;;;;;;1.23;0.80;;;21.10;99.90;;;;;;1047335;28;20100;-64
2022/06/29 01:48:09;;;;;;;1.30;0.70;;;21.10;99.90;;;;;;1047117;28;20021;-65
2022/06/29 01:48:40;;;;;;;3.67;1.07;;;21.10;99.90;;;;;;1047856;28;20009;-64
2022/06/29 01:49:10;;;;;;;1.37;0.80;;;21.10;99.90;;;;;;1047275;28;20035;-64
2022/06/29 01:49:41;;;;;;;1.07;0.73;;;21.10;99.90;;;;;;1047624;28;20016;-65
2022/06/29 01:50:12;;;;;;;1.50;0.70;;;21.10;99.90;;;;;;1047298;28;20012;-65
2022/06/29 01:50:42;;;;;;;0.77;0.50;;;21.10;99.90;;;;;;1047554;28;20115;-65
2022/06/29 01:51:13;;;;;;;1.40;0.70;;;21.10;99.90;;;;;;1047429;28;20009;-65
2022/06/29 01:51:43;;;;;;;0.70;0.70;;;21.10;99.90;;;;;;1047668;28;20033;-66
2022/06/29 01:52:14;;;;;;;1.90;0.80;;;21.10;99.90;;;;;;1047361;28;20012;-65
2022/06/29 01:52:44;;;;;;;2.93;1.23;;;21.00;99.90;;;;;;1047697;28;20100;-64
2022/06/29 01:53:15;;;;;;;1.40;0.60;;;21.00;99.90;;;;;;1047476;28;20012;-65
2022/06/29 01:53:46;;;;;;;1.27;0.57;;;21.10;99.90;;;;;;1047861;28;20009;-65
2022/06/29 01:54:16;;;;;;;2.87;0.97;;;21.00;99.90;;;;;;1047291;28;20016;-66
2022/06/29 01:54:47;;;;;;;0.73;0.60;;;21.00;99.90;;;;;;1047203;28;20021;-65
2022/06/29 01:55:18;;;;;;;1.17;0.90;;;21.00;99.90;;;;;;1047206;28;20492;-66
2022/06/29 01:55:48;;;;;;;1.23;0.90;;;21.10;99.90;;;;;;1046949;28;20017;-65
2022/06/29 01:56:19;;;;;;;1.03;0.93;;;21.00;99.90;;;;;;1047420;28;20004;-65
2022/06/29 01:56:49;;;;;;;2.13;0.60;;;21.10;99.90;;;;;;1047059;28;20020;-65
2022/06/29 01:57:20;;;;;;;1.27;0.90;;;21.00;99.90;;;;;;1047228;28;20084;-65
2022/06/29 01:57:50;;;;;;;1.53;0.80;;;21.00;99.90;;;;;;1047295;28;20047;-65
2022/06/29 01:58:21;;;;;;;1.43;0.77;;;21.00;99.90;;;;;;1047092;28;20036;-64
2022/06/29 01:58:52;;;;;;;2.30;0.83;;;21.00;99.90;;;;;;1047803;28;20013;-64
2022/06/29 01:59:22;;;;;;;1.13;0.90;;;21.00;99.90;;;;;;1047532;28;20047;-65
2022/06/29 01:59:53;;;;;;;1.07;0.63;;;21.00;99.90;;;;;;1047353;28;20259;-64
2022/06/29 02:00:23;;;;;;;1.20;0.77;;;21.00;99.90;;;;;;1047733;28;20009;-65
2022/06/29 02:00:54;;;;;;;0.67;0.60;;;21.00;99.90;;;;;;1047296;28;20008;-64
2022/06/29 02:01:24;;;;;;;1.00;0.60;;;21.00;99.90;;;;;;1047958;28;20020;-65
2022/06/29 02:01:55;;;;;;;1.43;0.80;;;21.00;99.90;;;;;;1046744;28;20063;-64
2022/06/29 02:02:25;;;;;;;1.53;0.80;;;21.00;99.90;;;;;;1047166;28;20017;-65
2022/06/29 02:02:56;;;;;;;2.53;1.00;;;21.00;99.90;;;;;;1047101;28;20016;-64
2022/06/29 02:03:26;;;;;;;0.80;0.77;;;21.00;99.90;;;;;;1047104;28;20082;-65
2022/06/29 02:03:57;;;;;;;1.67;0.77;;;21.00;99.90;;;;;;1047224;28;20070;-65
2022/06/29 02:04:27;;;;;;;1.20;0.70;;;20.90;99.90;;;;;;1047286;28;20067;-65
2022/06/29 02:04:58;;;;;;;2.27;1.20;;;20.90;99.90;;;;;;1046722;28;20009;-64
2022/06/29 02:05:28;;;;;;;1.30;0.73;;;21.00;99.90;;;;;;1047876;28;20023;-65
2022/06/29 02:05:59;;;;;;;0.80;0.67;;;20.90;99.90;;;;;;1047387;28;20027;-64
2022/06/29 02:06:30;;;;;;;1.27;0.80;;;20.90;99.90;;;;;;1045055;28;20451;-65
2022/06/29 02:07:00;;;;;;;0.77;0.60;;;20.90;99.90;;;;;;1042884;28;20017;-65
2022/06/29 02:07:31;;;;;;;1.53;0.83;;;20.90;99.90;;;;;;1043216;28;20017;-64
2022/06/29 02:08:01;;;;;;;1.63;0.90;;;20.90;99.90;;;;;;1043395;28;20020;-65
2022/06/29 02:08:32;;;;;;;1.23;0.97;;;20.90;99.90;;;;;;1043285;28;20052;-64
2022/06/29 02:09:03;;;;;;;1.00;0.70;;;20.90;99.90;;;;;;1043372;28;20104;-64
2022/06/29 02:09:33;;;;;;;3.03;0.80;;;20.90;99.90;;;;;;1043305;28;20098;-64
2022/06/29 02:10:04;;;;;;;1.43;0.70;;;20.90;99.90;;;;;;1043318;28;20025;-64
2022/06/29 02:10:36;;;;;;;0.75;0.70;;;20.90;99.90;;;;;;1043247;28;20025;-65
2022/06/29 02:11:07;;;;;;;1.95;0.80;;;20.90;99.90;;;;;;1043293;28;20551;-65
2022/06/29 02:11:37;;;;;;;1.17;0.60;;;20.90;99.90;;;;;;1043621;28;20596;-64
2022/06/29 02:12:08;;;;;;;1.10;0.90;;;20.90;99.90;;;;;;1043168;28;20021;-65
2022/06/29 02:12:38;;;;;;;3.10;1.00;;;20.80;99.90;;;;;;1043141;28;20017;-65
2022/06/29 02:13:09;;;;;;;3.57;0.83;;;20.90;99.90;;;;;;1043525;28;20096;-69
2022/06/29 02:13:40;;;;;;;2.20;1.03;;;20.90;99.90;;;;;;1043237;28;20017;-65
2022/06/29 02:14:10;;;;;;;1.60;0.80;;;20.90;99.90;;;;;;1044808;28;20013;-65
2022/06/29 02:14:41;;;;;;;3.60;1.10;;;20.80;99.90;;;;;;1047327;28;20063;-65
2022/06/29 02:15:11;;;;;;;1.70;0.80;;;20.80;99.90;;;;;;1047371;28;20056;-65
2022/06/29 02:15:42;;;;;;;1.30;0.90;;;20.80;99.90;;;;;;1047092;28;20119;-65
2022/06/29 02:16:13;;;;;;;1.77;0.80;;;20.80;99.90;;;;;;1047093;28;20016;-64
2022/06/29 02:16:43;;;;;;;3.27;0.93;;;20.80;99.90;;;;;;1047168;28;20028;-65
2022/06/29 02:17:14;;;;;;;2.47;0.83;;;20.80;99.90;;;;;;1047187;28;20096;-65
2022/06/29 02:17:44;;;;;;;1.10;0.87;;;20.80;99.90;;;;;;1047236;28;20025;-64
2022/06/29 02:18:15;;;;;;;2.60;0.97;;;20.80;99.90;;;;;;1047466;28;20020;-64
2022/06/29 02:18:45;;;;;;;2.37;0.80;;;20.80;99.90;;;;;;1047430;28;20100;-65
2022/06/29 02:19:16;;;;;;;0.90;0.67;;;20.80;99.90;;;;;;1047917;28;20024;-66
2022/06/29 02:19:46;;;;;;;1.80;1.00;;;20.80;99.90;;;;;;1047309;28;20033;-64
2022/06/29 02:20:17;;;;;;;1.30;0.90;;;20.80;99.90;;;;;;1047094;28;20028;-65
2022/06/29 02:20:48;;;;;;;0.97;0.87;;;20.80;99.90;;;;;;1046869;28;20036;-64
2022/06/29 02:21:18;;;;;;;1.40;0.63;;;20.80;99.90;;;;;;1047442;28;20020;-65
2022/06/29 02:21:49;;;;;;;1.03;0.77;;;20.80;99.90;;;;;;1043535;28;20040;-64
2022/06/29 02:22:19;;;;;;;1.10;0.60;;;20.80;99.90;;;;;;1043672;28;20110;-64
2022/06/29 02:22:50;;;;;;;1.17;0.77;;;20.80;99.90;;;;;;1042968;28;20053;-67
2022/06/29 02:23:21;;;;;;;1.47;0.90;;;20.80;99.90;;;;;;1043422;28;20017;-66
2022/06/29 02:23:51;;;;;;;0.80;0.80;;;20.70;99.90;;;;;;1043127;28;20047;-64
2022/06/29 02:24:22;;;;;;;1.20;0.90;;;20.80;99.90;;;;;;1043001;28;20403;-65
2022/06/29 02:24:52;;;;;;;1.67;0.97;;;20.70;99.90;;;;;;1042890;28;20052;-65
2022/06/29 02:25:23;;;;;;;1.17;1.00;;;20.80;99.90;;;;;;1044794;28;20017;-65
2022/06/29 02:25:54;;;;;;;0.63;0.63;;;20.70;99.90;;;;;;1046746;28;20460;-65
2022/06/29 02:26:24;;;;;;;2.37;1.00;;;20.70;99.90;;;;;;1047804;28;20082;-65
2022/06/29 02:26:55;;;;;;;1.33;0.80;;;20.70;99.90;;;;;;1046987;28;20013;-65
2022/06/29 02:27:25;;;;;;;1.67;0.90;;;20.70;99.90;;;;;;1047745;28;20425;-64
2022/06/29 02:27:56;;;;;;;2.40;0.83;;;20.70;99.90;;;;;;1047239;28;20371;-64
2022/06/29 02:28:27;;;;;;;1.23;0.80;;;20.70;99.90;;;;;;1047280;28;20533;-65
2022/06/29 02:28:57;;;;;;;0.70;0.70;;;20.70;99.90;;;;;;1047436;28;20463;-64
2022/06/29 02:29:28;;;;;;;1.20;0.70;;;20.70;99.90;;;;;;1047460;28;20012;-64
2022/06/29 02:29:58;;;;;;;0.80;0.70;;;20.70;99.90;;;;;;1047525;28;20013;-65
2022/06/29 02:34:43;;;;;;;1.00;0.70;;;20.70;99.90;;;;;;1047027;28;20051;-65
2022/06/29 02:35:14;;;;;;;2.38;0.93;;;20.70;99.90;;;;;;1047414;28;20015;-65
2022/06/29 02:35:44;;;;;;;1.27;1.00;;;20.70;99.90;;;;;;1047287;28;20044;-64
2022/06/29 02:36:15;;;;;;;1.97;0.80;;;20.70;99.90;;;;;;1047314;28;20015;-65
2022/06/29 02:36:46;;;;;;;2.90;1.00;;;20.70;99.90;;;;;;1047522;28;20060;-66
2022/06/29 02:37:16;;;;;;;2.10;0.97;;;20.70;99.90;;;;;;1047428;28;20191;-66
2022/06/29 02:37:47;;;;;;;1.33;0.80;;;20.70;99.90;;;;;;1047326;28;20111;-65
2022/06/29 02:38:17;;;;;;;1.10;0.63;;;20.70;99.90;;;;;;1047270;28;20019;-64
2022/06/29 02:38:48;;;;;;;2.00;0.80;;;20.70;99.90;;;;;;1047185;28;20009;-64
2022/06/29 02:39:18;;;;;;;2.67;1.17;;;20.70;99.90;;;;;;1047518;28;20016;-64
2022/06/29 02:39:49;;;;;;;1.03;0.77;;;20.70;99.90;;;;;;1047179;28;20484;-64
2022/06/29 02:40:19;;;;;;;1.47;0.70;;;20.70;99.90;;;;;;1047747;28;20491;-64
2022/06/29 02:40:50;;;;;;;1.10;0.67;;;20.70;99.90;;;;;;1047068;28;20727;-64
2022/06/29 02:41:21;;;;;;;0.87;0.70;;;20.70;99.90;;;;;;1047460;28;20085;-65
2022/06/29 02:41:51;;;;;;;0.83;0.80;;;20.70;99.90;;;;;;1047280;28;20021;-64
2022/06/29 02:42:22;;;;;;;1.33;0.87;;;20.70;99.90;;;;;;1047524;28;20771;-64
2022/06/29 02:42:53;;;;;;;1.48;0.90;;;20.70;99.90;;;;;;1047114;28;20116;-64
2022/06/29 02:43:23;;;;;;;1.20;1.10;;;20.60;99.90;;;;;;1047482;28;20012;-64
2022/06/29 02:43:54;;;;;;;1.37;0.87;;;20.60;99.90;;;;;;1046275;28;20046;-64
2022/06/29 02:44:25;;;;;;;1.08;0.75;;;20.70;99.90;;;;;;1047446;28;20062;-64
2022/06/29 02:44:56;;;;;;;0.80;0.60;;;20.60;99.90;;;;;;1046666;28;20013;-64
2022/06/29 02:45:26;;;;;;;1.27;0.80;;;20.60;99.90;;;;;;1047211;28;20501;-64
2022/06/29 02:45:57;;;;;;;2.97;1.30;;;20.60;99.90;;;;;;1047074;28;20061;-65